createdAt,value
2022-09-22T00:02:48.759Z,7.18
2022-09-22T00:07:53.982Z,7.44
2022-09-22T00:12:58.360Z,7.50
2022-09-22T00:18:04.448Z,7.67
2022-09-22T00:23:09.188Z,7.64
2022-09-22T00:28:13.704Z,7.53
2022-09-22T00:33:19.458Z,7.47
2022-09-22T00:38:23.815Z,7.68
2022-09-22T00:43:30.551Z,7.59
2022-09-22T00:48:40.515Z,7.67
2022-09-22T00:53:45.308Z,7.61
2022-09-22T00:58:53.503Z,7.63
2022-09-22T01:03:59.661Z,7.66
2022-09-22T01:09:04.963Z,7.59
2022-09-22T01:14:33.636Z,7.75
2022-09-22T01:20:26.591Z,7.89
2022-09-22T01:26:03.205Z,8.01
2022-09-22T01:31:16.496Z,8.00
2022-09-22T01:36:28.689Z,7.93
2022-09-22T01:41:59.297Z,7.74
2022-09-22T01:47:12.313Z,7.81
2022-09-22T01:52:22.119Z,7.93
2022-09-22T01:57:39.708Z,7.98
2022-09-22T02:02:53.334Z,8.14
2022-09-22T02:08:03.018Z,8.13
2022-09-22T02:13:08.023Z,8.09
2022-09-22T02:18:20.693Z,7.93
2022-09-22T02:23:25.176Z,8.00
2022-09-22T02:28:33.106Z,8.05
2022-09-22T02:33:42.764Z,8.06
2022-09-22T02:38:54.650Z,8.07
2022-09-22T02:44:06.722Z,7.93
2022-09-22T02:49:17.965Z,8.07
2022-09-22T02:54:23.065Z,7.95
2022-09-22T02:59:27.418Z,7.91
2022-09-22T03:04:33.782Z,7.90
2022-09-22T03:09:38.107Z,7.67
2022-09-22T03:14:42.576Z,7.72
2022-09-22T03:19:48.456Z,7.82
2022-09-22T03:24:53.080Z,7.83
2022-09-22T03:29:57.453Z,7.80
2022-09-22T03:35:03.722Z,7.97
2022-09-22T03:40:09.813Z,7.83
2022-09-22T03:45:15.315Z,7.67
2022-09-22T03:50:21.268Z,7.85
2022-09-22T03:55:26.059Z,7.98
2022-09-22T04:00:30.383Z,8.10
2022-09-22T04:05:37.679Z,8.15
2022-09-22T04:10:42.706Z,8.10
2022-09-22T04:15:48.496Z,7.98
2022-09-22T04:20:59.091Z,7.88
2022-09-22T04:26:03.646Z,8.05
2022-09-22T04:31:08.604Z,8.14
2022-09-22T04:36:15.087Z,8.26
2022-09-22T04:41:19.688Z,8.24
2022-09-22T04:46:25.433Z,8.23
2022-09-22T04:51:31.394Z,8.17
2022-09-22T04:56:35.809Z,8.20
2022-09-22T05:01:40.593Z,8.18
2022-09-22T05:06:47.407Z,8.15
2022-09-22T05:11:52.860Z,8.16
2022-09-22T05:16:58.090Z,8.26
2022-09-22T05:22:04.444Z,8.09
2022-09-22T05:27:08.885Z,7.93
2022-09-22T05:32:13.483Z,7.86
2022-09-22T05:37:19.955Z,7.76
2022-09-22T05:42:24.395Z,7.95
2022-09-22T05:47:28.854Z,8.10
2022-09-22T05:52:35.161Z,8.17
2022-09-22T05:57:43.447Z,8.55
2022-09-22T06:02:48.120Z,8.86
2022-09-22T06:08:03.777Z,9.04
2022-09-22T06:13:10.523Z,9.05
2022-09-22T06:18:16.935Z,9.06
2022-09-22T06:23:27.674Z,9.24
2022-09-22T06:28:32.670Z,9.56
2022-09-22T06:33:37.485Z,9.75
2022-09-22T06:38:44.915Z,9.95
2022-09-22T06:43:50.605Z,10.08
2022-09-22T06:48:57.638Z,10.08
2022-09-22T06:54:07.508Z,10.18
2022-09-22T06:59:14.556Z,10.07
2022-09-22T07:04:20.400Z,9.85
2022-09-22T07:09:27.340Z,10.14
2022-09-22T07:14:33.647Z,10.30
2022-09-22T07:19:38.387Z,10.52
2022-09-22T07:24:44.789Z,10.38
2022-09-22T07:29:49.828Z,10.47
2022-09-22T07:34:54.717Z,10.67
2022-09-22T07:40:03.702Z,11.12
2022-09-22T07:45:17.381Z,12.25
2022-09-22T07:50:21.738Z,13.41
2022-09-22T07:55:27.510Z,16.42
2022-09-22T08:00:36.791Z,16.81
2022-09-22T08:05:41.023Z,15.39
2022-09-22T08:10:46.751Z,15.57
2022-09-22T08:15:56.975Z,14.65
2022-09-22T08:21:02.090Z,14.10
2022-09-22T08:26:10.882Z,15.03
2022-09-22T08:31:20.363Z,14.86
2022-09-22T08:36:28.412Z,13.75
2022-09-22T08:41:44.515Z,14.46
2022-09-22T08:46:50.004Z,14.97
2022-09-22T08:52:00.696Z,14.35
2022-09-22T08:57:22.905Z,15.20
2022-09-22T09:02:43.910Z,16.12
2022-09-22T09:08:00.582Z,15.52
2022-09-22T09:13:23.114Z,15.15
2022-09-22T09:18:35.341Z,15.00
2022-09-22T09:29:22.464Z,14.20
2022-09-22T09:34:30.631Z,13.72
2022-09-22T09:39:36.202Z,13.88
2022-09-22T09:44:42.447Z,14.31
2022-09-22T09:49:52.845Z,13.89
2022-09-22T09:54:57.467Z,13.84
2022-09-22T10:00:32.905Z,14.71
2022-09-22T10:05:39.203Z,14.91
2022-09-22T10:10:44.107Z,15.23
2022-09-22T10:16:22.840Z,15.28
2022-09-22T10:21:29.106Z,15.85
2022-09-22T10:26:34.923Z,15.70
2022-09-22T10:31:42.127Z,15.40
2022-09-22T10:36:48.529Z,14.73
2022-09-22T10:41:53.659Z,14.17
2022-09-22T10:47:33.039Z,13.10
2022-09-22T10:52:46.532Z,12.60
2022-09-22T10:58:07.677Z,12.68
2022-09-22T11:03:39.447Z,12.92
2022-09-22T11:09:09.918Z,13.08
2022-09-22T11:14:29.836Z,13.15
2022-09-22T11:19:59.144Z,13.31
2022-09-22T11:25:19.963Z,13.68
2022-09-22T11:30:25.091Z,13.86
2022-09-22T11:35:55.454Z,13.99
2022-09-22T11:41:21.177Z,13.75
2022-09-22T11:46:40.963Z,13.44
2022-09-22T11:52:08.114Z,11.86
2022-09-22T11:57:16.142Z,11.00
2022-09-22T12:02:28.660Z,10.99
2022-09-22T12:07:45.258Z,11.26
2022-09-22T12:12:51.958Z,11.13
2022-09-22T12:18:05.867Z,11.18
2022-09-22T12:23:21.580Z,12.54
2022-09-22T12:28:28.397Z,12.74
2022-09-22T12:33:35.711Z,13.52
2022-09-22T12:38:42.570Z,15.10
2022-09-22T12:43:49.511Z,14.23
2022-09-22T12:48:55.913Z,14.77
2022-09-22T12:54:48.797Z,15.08
2022-09-22T13:00:32.879Z,14.52
2022-09-22T13:05:47.017Z,13.74
2022-09-22T13:10:58.667Z,13.59
2022-09-22T13:16:06.520Z,13.48
2022-09-22T13:21:25.314Z,13.17
2022-09-22T13:26:33.659Z,12.98
2022-09-22T13:31:45.704Z,13.06
2022-09-22T13:36:54.376Z,13.46
2022-09-22T13:42:01.326Z,13.25
2022-09-22T13:47:18.975Z,13.01
2022-09-22T13:52:30.540Z,12.90
2022-09-22T13:57:38.036Z,13.44
2022-09-22T14:02:46.828Z,16.91
2022-09-22T14:08:11.412Z,19.44
2022-09-22T14:13:42.885Z,19.83
2022-09-22T14:18:54.153Z,17.54
2022-09-22T14:24:03.233Z,15.66
2022-09-22T14:29:20.407Z,14.49
2022-09-22T14:34:31.423Z,13.97
2022-09-22T14:39:36.492Z,13.81
2022-09-22T14:44:49.553Z,13.35
2022-09-22T14:50:19.143Z,13.46
2022-09-22T14:55:32.185Z,13.80
2022-09-22T15:00:54.846Z,13.45
2022-09-22T15:06:10.032Z,13.09
2022-09-22T15:11:14.316Z,12.94
2022-09-22T15:16:39.885Z,12.99
2022-09-22T15:21:48.204Z,12.98
2022-09-22T15:26:53.387Z,12.77
2022-09-22T15:31:57.805Z,12.96
2022-09-22T15:37:05.567Z,12.96
2022-09-22T15:42:12.751Z,12.52
2022-09-22T15:47:19.328Z,12.51
2022-09-22T15:52:25.561Z,12.03
2022-09-22T15:57:31.554Z,11.96
2022-09-22T16:02:40.606Z,11.67
2022-09-22T16:07:50.270Z,11.46
2022-09-22T16:12:54.660Z,11.45
2022-09-22T16:17:59.456Z,11.51
2022-09-22T16:23:06.737Z,11.45
2022-09-22T16:28:12.539Z,11.56
2022-09-22T16:33:17.116Z,11.51
2022-09-22T16:38:23.063Z,11.22
2022-09-22T16:43:27.337Z,11.03
2022-09-22T16:48:33.674Z,10.73
2022-09-22T16:53:39.753Z,10.71
2022-09-22T16:58:43.903Z,10.50
2022-09-22T17:03:50.635Z,10.45
2022-09-22T17:08:58.307Z,10.36
2022-09-22T17:14:11.308Z,10.18
2022-09-22T17:19:20.295Z,10.01
2022-09-22T17:24:30.576Z,10.01
2022-09-22T17:29:35.246Z,10.01
2022-09-22T17:34:41.705Z,9.94
2022-09-22T17:39:48.016Z,10.00
2022-09-22T17:44:53.797Z,10.02
2022-09-22T17:50:17.805Z,9.83
2022-09-22T17:55:29.564Z,9.86
2022-09-22T18:00:38.902Z,9.95
2022-09-22T18:05:43.501Z,10.03
2022-09-22T18:10:49.144Z,9.98
2022-09-22T18:15:57.376Z,9.96
2022-09-22T18:21:07.485Z,9.72
2022-09-22T18:26:18.583Z,9.45
2022-09-22T18:31:23.491Z,9.32
2022-09-22T18:36:28.053Z,9.16
2022-09-22T18:41:33.985Z,8.97
2022-09-22T18:46:38.525Z,8.78
2022-09-22T18:51:46.824Z,8.82
2022-09-22T18:56:52.838Z,8.75
2022-09-22T19:01:57.674Z,8.82
2022-09-22T19:07:28.585Z,8.74
2022-09-22T19:12:39.926Z,8.86
2022-09-22T19:17:45.481Z,8.81
2022-09-22T19:22:52.663Z,8.84
2022-09-22T19:27:58.503Z,8.86
2022-09-22T19:33:03.047Z,8.88
2022-09-22T19:38:07.947Z,8.82
2022-09-22T19:43:16.147Z,8.80
2022-09-22T19:48:21.315Z,8.63
2022-09-22T19:53:26.005Z,8.61
2022-09-22T19:58:32.086Z,8.49
2022-09-22T20:03:36.583Z,8.42
2022-09-22T20:08:42.645Z,8.41
2022-09-22T20:14:05.915Z,8.38
2022-09-22T20:19:10.840Z,8.42
2022-09-22T20:24:17.442Z,8.48
2022-09-22T20:29:23.211Z,8.59
2022-09-22T20:34:27.605Z,8.74
2022-09-22T20:39:33.579Z,8.80
2022-09-22T20:44:40.902Z,8.87
2022-09-22T20:49:50.813Z,8.94
2022-09-22T20:54:56.187Z,9.05
2022-09-22T21:00:02.315Z,9.11
2022-09-22T21:05:07.481Z,9.08
2022-09-22T21:10:30.447Z,9.14
2022-09-22T21:15:38.034Z,9.19
2022-09-22T21:20:42.979Z,9.27
2022-09-22T21:25:57.586Z,9.26
2022-09-22T21:31:05.821Z,9.25
2022-09-22T21:36:14.061Z,9.26
2022-09-22T21:41:20.569Z,9.24
2022-09-22T21:46:29.928Z,9.24
2022-09-22T21:51:41.683Z,9.13
2022-09-22T21:56:46.678Z,8.98
2022-09-22T22:01:52.986Z,8.90
2022-09-22T22:06:57.975Z,8.85
2022-09-22T22:12:02.742Z,8.79
2022-09-22T22:17:09.491Z,8.83
2022-09-22T22:22:15.550Z,8.78
2022-09-22T22:27:20.095Z,8.62
2022-09-22T22:32:26.708Z,8.56
2022-09-22T22:37:31.006Z,8.59
2022-09-22T22:42:35.448Z,8.53
2022-09-22T22:47:41.623Z,8.47
2022-09-22T22:52:46.900Z,8.50
2022-09-22T22:57:51.182Z,8.49
2022-09-22T23:02:57.149Z,8.50
2022-09-22T23:08:02.388Z,8.59
2022-09-22T23:13:07.833Z,8.49
2022-09-22T23:18:16.489Z,8.61
2022-09-22T23:23:25.201Z,8.63
2022-09-22T23:28:32.298Z,8.62
2022-09-22T23:33:39.426Z,8.61
2022-09-22T23:38:45.191Z,8.68
2022-09-22T23:43:50.234Z,8.53
2022-09-22T23:48:56.391Z,8.61
2022-09-22T23:54:01.175Z,8.45
2022-09-22T23:59:05.830Z,8.53
